Sunset Colony, South Dakota
Current Conditions -  °F | °C
As of 10:15 AM on Thursday 27 Nov 2014 (Local Time) from KGWR Reporting Station
Clear Clear  
Wind Chill: -10°   Ceiling: Unl
Heat Index:   Visibility: 10mi
Dew Point: -8°   Wind: 5mph
Humidity: 72%   Direction: 160°SSE
Pressure: 30.45"   Gusts: NA
Location:  45.8144°N, 97.7089°W
Report Text: KGWR 271615Z AUTO 16004KT 10SM CLR M18/M22 A3045 RMK A01 P000
Loading
Personal Weather Stations






























Interactive Weather Map New forecast layout! Learn more

10-Day Weather Forecast

Advertisements
Track Severe Weather on mobile